Time;durP1;ratioP1;P1;durP2;ratioP2;P2;SDS_P1;SDS_P2;PMS_P1;PMS_P2;Temp;Humidity;BMP_temperature;BMP_pressure;BME280_temperature;BME280_humidity;BME280_pressure;Samples;Min_cycle;Max_cycle;Signal;HPM_P1;HPM_P2
2023/08/21 00:02:10;;;;;;;9.15;7.13;;;;;;;;;;6315483;27;20041;-70
2023/08/21 00:05:12;;;;;;;8.57;7.10;;;;;;;;;;6271986;27;20037;-70
2023/08/21 00:08:14;;;;;;;12.85;6.53;;;;;;;;;;6283501;27;20053;-69
2023/08/21 00:11:16;;;;;;;9.18;6.63;;;;;;;;;;6276130;27;20052;-69
2023/08/21 00:14:18;;;;;;;10.55;6.72;;;;;;;;;;6287132;27;20072;-69
2023/08/21 00:17:23;;;;;;;8.27;6.55;;;;;;;;;;6288641;27;20064;-69
2023/08/21 00:20:25;;;;;;;11.73;7.50;;;;;;;;;;6263712;27;20100;-69
2023/08/21 00:23:29;;;;;;;13.48;6.22;;;;;;;;;;6270554;27;20049;-70
2023/08/21 00:26:31;;;;;;;16.60;8.15;;;;;;;;;;6254981;27;20474;-69
2023/08/21 00:29:33;;;;;;;12.50;7.82;;;;;;;;;;6256299;27;20060;-69
2023/08/21 00:32:35;;;;;;;13.60;8.32;;;;;;;;;;6269285;27;20053;-69
2023/08/21 00:35:37;;;;;;;11.20;7.50;;;;;;;;;;6252846;27;20586;-69
2023/08/21 00:38:40;;;;;;;8.77;7.05;;;;;;;;;;6271985;27;20479;-70
2023/08/21 00:41:42;;;;;;;9.90;6.90;;;;;;;;;;6249836;27;20110;-69
2023/08/21 00:44:44;;;;;;;8.30;6.40;;;;;;;;;;6288774;27;20053;-68
2023/08/21 00:47:46;;;;;;;12.95;7.75;;;;;;;;;;6262656;27;20054;-69
2023/08/21 00:50:49;;;;;;;15.15;8.63;;;;;;;;;;6256312;27;20052;-70
2023/08/21 00:53:51;;;;;;;12.38;7.97;;;;;;;;;;6289854;27;20046;-69
2023/08/21 00:56:54;;;;;;;11.13;6.95;;;;;;;;;;6279827;27;20052;-69
2023/08/21 00:59:56;;;;;;;10.68;7.03;;;;;;;;;;6259790;27;20606;-69
2023/08/21 01:02:58;;;;;;;13.52;8.93;;;;;;;;;;6274556;27;20577;-70
2023/08/21 01:06:00;;;;;;;12.05;7.00;;;;;;;;;;6250515;27;20075;-68
2023/08/21 01:09:21;;;;;;;11.82;7.43;;;;;;;;;;6248644;28;20049;-70
2023/08/21 01:12:29;;;;;;;9.15;6.53;;;;;;;;;;6258836;27;20052;-70
2023/08/21 01:15:31;;;;;;;9.60;8.05;;;;;;;;;;6271452;27;20041;-70
2023/08/21 01:18:35;;;;;;;13.98;8.13;;;;;;;;;;6261342;27;20046;-71
2023/08/21 01:21:37;;;;;;;11.25;7.25;;;;;;;;;;6238965;27;20053;-69
2023/08/21 01:24:39;;;;;;;10.65;7.70;;;;;;;;;;6249856;28;20041;-70
2023/08/21 01:27:48;;;;;;;12.50;8.20;;;;;;;;;;6258175;27;20499;-70
2023/08/21 01:30:51;;;;;;;13.23;8.63;;;;;;;;;;6237561;27;20127;-69
2023/08/21 01:33:59;;;;;;;9.45;7.93;;;;;;;;;;6219640;28;20049;-69
2023/08/21 01:37:02;;;;;;;12.07;6.93;;;;;;;;;;6272080;27;20427;-69
2023/08/21 01:40:05;;;;;;;10.68;7.20;;;;;;;;;;6294876;27;20132;-69
2023/08/21 01:43:07;;;;;;;11.35;8.23;;;;;;;;;;6276620;27;20057;-70
2023/08/21 01:46:10;;;;;;;9.80;6.97;;;;;;;;;;6260935;27;20703;-70
2023/08/21 01:49:12;;;;;;;9.63;6.30;;;;;;;;;;6271332;27;20045;-70
2023/08/21 01:52:14;;;;;;;9.80;8.02;;;;;;;;;;6285263;27;20045;-70
2023/08/21 01:55:16;;;;;;;12.40;8.55;;;;;;;;;;6264266;27;20194;-70
2023/08/21 01:58:18;;;;;;;15.52;9.85;;;;;;;;;;6254733;27;20810;-70
2023/08/21 02:01:20;;;;;;;18.33;9.23;;;;;;;;;;6251971;27;20549;-70
2023/08/21 02:04:22;;;;;;;15.90;9.95;;;;;;;;;;6324274;27;20134;-69
2023/08/21 02:07:25;;;;;;;15.15;9.48;;;;;;;;;;6310670;27;20050;-69
2023/08/21 02:10:27;;;;;;;13.85;8.60;;;;;;;;;;6274478;27;20047;-70
2023/08/21 02:13:29;;;;;;;11.38;9.02;;;;;;;;;;6269764;27;20549;-70
2023/08/21 02:16:32;;;;;;;13.60;7.97;;;;;;;;;;6264681;27;20127;-69
2023/08/21 02:19:34;;;;;;;13.02;8.80;;;;;;;;;;6280388;27;20045;-69
2023/08/21 02:22:36;;;;;;;20.00;8.15;;;;;;;;;;6288523;27;20051;-70
2023/08/21 02:25:38;;;;;;;12.27;8.07;;;;;;;;;;6301289;27;20037;-69
2023/08/21 02:28:43;;;;;;;12.20;8.32;;;;;;;;;;6295744;27;20125;-69
2023/08/21 02:31:46;;;;;;;12.32;8.90;;;;;;;;;;6270434;27;20493;-70
2023/08/21 02:34:48;;;;;;;11.95;8.45;;;;;;;;;;6273715;27;20050;-69
2023/08/21 02:37:50;;;;;;;11.55;8.13;;;;;;;;;;6257318;27;20045;-70
2023/08/21 02:40:52;;;;;;;11.15;8.18;;;;;;;;;;6271491;27;20056;-69
2023/08/21 02:43:54;;;;;;;15.63;9.05;;;;;;;;;;6290370;27;20127;-70
2023/08/21 02:46:56;;;;;;;9.70;8.30;;;;;;;;;;6282609;27;20060;-70
2023/08/21 02:49:59;;;;;;;12.25;8.55;;;;;;;;;;6266467;27;20054;-69
2023/08/21 02:53:01;;;;;;;11.27;8.90;;;;;;;;;;6308164;27;20076;-69
2023/08/21 02:56:03;;;;;;;13.02;9.05;;;;;;;;;;6247947;27;20038;-70
2023/08/21 02:59:06;;;;;;;9.90;8.45;;;;;;;;;;6291657;27;20513;-70
2023/08/21 03:02:08;;;;;;;13.05;9.95;;;;;;;;;;6251173;27;20487;-69
2023/08/21 03:05:11;;;;;;;11.73;7.88;;;;;;;;;;6284477;27;20044;-70
2023/08/21 03:08:13;;;;;;;11.55;9.43;;;;;;;;;;6260322;27;20106;-70
2023/08/21 03:11:15;;;;;;;11.10;8.18;;;;;;;;;;6252014;28;20166;-70
2023/08/21 03:14:17;;;;;;;10.20;7.72;;;;;;;;;;6287045;27;20048;-70
2023/08/21 03:17:20;;;;;;;10.65;8.10;;;;;;;;;;6307402;27;20041;-70
2023/08/21 03:20:23;;;;;;;10.85;9.10;;;;;;;;;;6270251;27;20435;-68
2023/08/21 03:23:25;;;;;;;12.30;8.25;;;;;;;;;;6298474;27;20056;-68
2023/08/21 03:26:27;;;;;;;13.32;7.97;;;;;;;;;;6282894;27;20618;-69
2023/08/21 03:29:29;;;;;;;13.82;8.18;;;;;;;;;;6259841;27;20061;-69
2023/08/21 03:32:32;;;;;;;12.52;7.82;;;;;;;;;;6273803;27;20064;-69
2023/08/21 03:35:35;;;;;;;10.65;8.02;;;;;;;;;;6264816;27;20492;-70
2023/08/21 03:38:38;;;;;;;13.77;8.32;;;;;;;;;;6322907;27;20108;-71
2023/08/21 03:41:43;;;;;;;;;;;;;;;;;;6254031;28;20055;-70
2023/08/21 03:44:48;;;;;;;14.48;8.30;;;;;;;;;;6259694;28;19925;-71
2023/08/21 03:47:50;;;;;;;16.80;9.25;;;;;;;;;;6264015;27;20049;-70
2023/08/21 03:50:54;;;;;;;14.90;8.90;;;;;;;;;;6360419;27;20125;-70
2023/08/21 03:53:57;;;;;;;14.07;10.68;;;;;;;;;;6335270;27;20427;-70
2023/08/21 03:56:58;;;;;;;17.70;9.45;;;;;;;;;;6255096;28;20721;-70
2023/08/21 04:00:01;;;;;;;13.60;9.43;;;;;;;;;;6261486;27;20182;-70
2023/08/21 04:03:05;;;;;;;12.25;9.07;;;;;;;;;;6256298;27;20060;-70
2023/08/21 04:06:07;;;;;;;14.45;10.40;;;;;;;;;;6266419;27;20089;-70
2023/08/21 04:09:09;;;;;;;16.70;10.60;;;;;;;;;;6245015;27;20131;-70
2023/08/21 04:12:12;;;;;;;17.58;10.43;;;;;;;;;;6266165;27;20435;-70
2023/08/21 04:15:14;;;;;;;18.83;10.70;;;;;;;;;;6255959;27;20150;-70
2023/08/21 04:18:16;;;;;;;19.20;10.75;;;;;;;;;;6283852;27;20052;-70
2023/08/21 04:21:38;;;;;;;17.58;11.20;;;;;;;;;;6264269;27;20049;-70
2023/08/21 04:24:41;;;;;;;19.60;11.43;;;;;;;;;;6247112;28;20042;-70
2023/08/21 04:27:43;;;;;;;16.27;11.27;;;;;;;;;;6252578;28;20639;-70
2023/08/21 04:30:45;;;;;;;15.63;10.75;;;;;;;;;;6249335;28;20049;-70
2023/08/21 04:33:47;;;;;;;16.13;9.60;;;;;;;;;;6246062;27;20045;-70
2023/08/21 04:36:50;;;;;;;19.70;12.73;;;;;;;;;;6257251;27;20670;-71
2023/08/21 04:39:53;;;;;;;17.98;10.93;;;;;;;;;;6247180;27;20056;-70
2023/08/21 04:42:55;;;;;;;14.57;9.38;;;;;;;;;;6270036;27;20201;-70
2023/08/21 04:45:58;;;;;;;16.20;9.45;;;;;;;;;;6262703;27;20088;-68
2023/08/21 04:49:00;;;;;;;16.10;10.68;;;;;;;;;;6246994;27;20048;-69
2023/08/21 04:52:03;;;;;;;18.17;10.82;;;;;;;;;;6266024;27;20078;-69
2023/08/21 04:55:06;;;;;;;14.45;9.27;;;;;;;;;;6251922;27;20450;-70
2023/08/21 04:58:10;;;;;;;17.75;12.20;;;;;;;;;;6238744;28;20596;-68
2023/08/21 05:01:12;;;;;;;14.43;9.32;;;;;;;;;;6340397;27;20053;-70
2023/08/21 05:04:19;;;;;;;13.07;8.60;;;;;;;;;;6253245;27;20053;-70
2023/08/21 05:07:23;;;;;;;12.13;9.52;;;;;;;;;;6280417;27;20045;-70
2023/08/21 05:10:26;;;;;;;16.90;8.32;;;;;;;;;;6259968;27;20059;-70
2023/08/21 05:13:29;;;;;;;12.70;8.15;;;;;;;;;;6248440;28;20127;-69
2023/08/21 05:16:31;;;;;;;12.80;7.95;;;;;;;;;;6254223;27;20122;-69
2023/08/21 05:19:34;;;;;;;12.23;8.93;;;;;;;;;;6250629;27;20079;-69
2023/08/21 05:22:36;;;;;;;13.57;8.55;;;;;;;;;;6262483;27;20061;-69
2023/08/21 05:25:39;;;;;;;10.00;6.88;;;;;;;;;;6257625;27;20674;-70
2023/08/21 05:28:42;;;;;;;14.10;6.15;;;;;;;;;;6243082;27;20404;-70
2023/08/21 05:31:44;;;;;;;10.20;6.85;;;;;;;;;;6249361;27;20052;-70
2023/08/21 05:34:46;;;;;;;11.63;7.78;;;;;;;;;;6240702;27;20049;-70
2023/08/21 05:37:48;;;;;;;13.10;7.05;;;;;;;;;;6255253;27;20045;-71
2023/08/21 05:40:53;;;;;;;11.57;8.85;;;;;;;;;;6249739;27;20052;-70
2023/08/21 05:43:56;;;;;;;15.13;8.65;;;;;;;;;;6281389;27;20113;-70
2023/08/21 05:47:00;;;;;;;11.23;8.30;;;;;;;;;;6261794;27;20068;-70
2023/08/21 05:50:02;;;;;;;12.98;8.85;;;;;;;;;;6258922;27;20049;-67
2023/08/21 05:53:04;;;;;;;11.70;8.02;;;;;;;;;;6290825;27;20057;-66
2023/08/21 05:56:07;;;;;;;11.65;8.40;;;;;;;;;;6243501;27;20056;-68
2023/08/21 05:59:10;;;;;;;12.95;8.75;;;;;;;;;;6295273;27;20431;-67
2023/08/21 06:02:13;;;;;;;10.15;8.43;;;;;;;;;;6252591;27;20041;-68
2023/08/21 06:05:15;;;;;;;11.55;7.47;;;;;;;;;;6249278;27;20135;-67
2023/08/21 06:08:19;;;;;;;11.30;8.80;;;;;;;;;;6264375;27;20068;-68
2023/08/21 06:11:21;;;;;;;16.35;10.60;;;;;;;;;;6250140;28;20056;-67
2023/08/21 06:14:28;;;;;;;12.32;7.72;;;;;;;;;;6244232;27;20059;-70
2023/08/21 06:17:35;;;;;;;12.68;7.60;;;;;;;;;;6249960;27;20051;-71
2023/08/21 06:20:37;;;;;;;14.60;9.02;;;;;;;;;;6272310;27;20041;-71
2023/08/21 06:23:39;;;;;;;10.93;8.75;;;;;;;;;;6271415;27;20048;-67
2023/08/21 06:26:41;;;;;;;24.02;9.82;;;;;;;;;;6247576;27;20094;-70
2023/08/21 06:29:44;;;;;;;14.27;8.23;;;;;;;;;;6244695;27;20049;-68
2023/08/21 06:32:46;;;;;;;13.45;7.97;;;;;;;;;;6263138;27;20126;-68
2023/08/21 06:35:49;;;;;;;11.73;8.57;;;;;;;;;;6301173;27;20036;-69
2023/08/21 06:38:51;;;;;;;10.68;7.60;;;;;;;;;;6257341;27;20037;-69
2023/08/21 06:41:53;;;;;;;9.13;6.78;;;;;;;;;;6275377;27;20065;-69
2023/08/21 06:44:59;;;;;;;38.38;8.63;;;;;;;;;;6264698;27;20144;-68
2023/08/21 06:48:02;;;;;;;14.20;6.85;;;;;;;;;;6257063;27;20049;-68
2023/08/21 06:51:04;;;;;;;8.15;6.65;;;;;;;;;;6265546;27;20060;-67
2023/08/21 06:54:06;;;;;;;10.85;7.47;;;;;;;;;;6286722;27;20198;-73
2023/08/21 06:57:08;;;;;;;11.55;7.18;;;;;;;;;;6284519;27;20078;-70
2023/08/21 07:00:11;;;;;;;8.43;6.53;;;;;;;;;;6307813;27;20041;-71
2023/08/21 07:03:13;;;;;;;8.38;6.65;;;;;;;;;;6285693;27;20048;-70
2023/08/21 07:06:15;;;;;;;8.77;5.90;;;;;;;;;;6258646;27;20038;-70
2023/08/21 07:09:17;;;;;;;12.18;5.95;;;;;;;;;;6286458;27;20113;-70
2023/08/21 07:12:19;;;;;;;11.15;7.10;;;;;;;;;;6273968;27;20080;-70
2023/08/21 07:15:22;;;;;;;9.02;6.13;;;;;;;;;;6268714;27;20438;-71
2023/08/21 07:18:24;;;;;;;11.10;5.78;;;;;;;;;;6272090;27;20178;-71
2023/08/21 07:21:26;;;;;;;11.43;5.55;;;;;;;;;;6249431;28;20049;-71
2023/08/21 07:24:35;;;;;;;9.65;6.07;;;;;;;;;;6269001;27;20054;-71
2023/08/21 07:27:38;;;;;;;9.07;6.10;;;;;;;;;;6277726;27;20467;-71
2023/08/21 07:30:40;;;;;;;13.70;5.30;;;;;;;;;;6284209;27;20056;-71
2023/08/21 07:33:42;;;;;;;11.10;5.82;;;;;;;;;;6277228;27;20799;-71
2023/08/21 07:36:44;;;;;;;8.23;5.35;;;;;;;;;;6263734;27;20040;-71
2023/08/21 07:39:46;;;;;;;9.10;5.53;;;;;;;;;;6335890;27;20058;-71
2023/08/21 07:42:48;;;;;;;11.52;5.95;;;;;;;;;;6262982;27;20055;-71
2023/08/21 07:45:50;;;;;;;10.65;5.65;;;;;;;;;;6271236;27;20124;-71
2023/08/21 07:48:53;;;;;;;17.08;5.57;;;;;;;;;;6271043;27;20055;-71
2023/08/21 07:51:55;;;;;;;12.77;5.57;;;;;;;;;;6265230;27;20786;-71
2023/08/21 07:54:59;;;;;;;20.08;6.72;;;;;;;;;;6256265;27;20772;-71
2023/08/21 07:58:01;;;;;;;11.32;4.80;;;;;;;;;;6284725;27;20042;-71
2023/08/21 08:01:04;;;;;;;11.73;5.43;;;;;;;;;;6260701;27;20156;-71
2023/08/21 08:04:07;;;;;;;12.15;5.18;;;;;;;;;;6254209;27;20057;-71
2023/08/21 08:07:10;;;;;;;11.77;5.03;;;;;;;;;;6271781;27;20558;-71
2023/08/21 08:10:12;;;;;;;15.40;5.85;;;;;;;;;;6285818;27;20039;-71
2023/08/21 08:13:14;;;;;;;10.65;5.63;;;;;;;;;;6249868;27;20072;-71
2023/08/21 08:16:16;;;;;;;8.75;5.20;;;;;;;;;;6256697;27;20078;-69
2023/08/21 08:19:18;;;;;;;11.35;5.50;;;;;;;;;;6281110;27;20057;-68
2023/08/21 08:22:21;;;;;;;15.75;5.47;;;;;;;;;;6265934;27;20037;-71
2023/08/21 08:25:23;;;;;;;10.25;5.60;;;;;;;;;;6262927;27;20054;-71
2023/08/21 08:28:25;;;;;;;10.73;5.22;;;;;;;;;;6248424;27;20132;-70
2023/08/21 08:31:27;;;;;;;10.27;5.53;;;;;;;;;;6281629;27;20041;-70
2023/08/21 08:34:29;;;;;;;10.07;5.43;;;;;;;;;;6263795;27;20049;-71
2023/08/21 08:37:31;;;;;;;10.25;6.47;;;;;;;;;;6253883;27;20427;-70
2023/08/21 08:40:37;;;;;;;13.52;5.28;;;;;;;;;;6267176;27;20547;-70
2023/08/21 08:43:40;;;;;;;9.10;5.78;;;;;;;;;;6247718;27;20041;-70
2023/08/21 08:46:42;;;;;;;8.10;5.45;;;;;;;;;;6280435;27;20795;-70
2023/08/21 08:49:48;;;;;;;11.45;5.22;;;;;;;;;;6253199;27;20186;-71
2023/08/21 08:52:50;;;;;;;15.05;6.38;;;;;;;;;;6250916;27;20053;-70
2023/08/21 08:55:54;;;;;;;13.38;6.10;;;;;;;;;;6250934;27;20711;-70
2023/08/21 08:58:56;;;;;;;8.85;5.38;;;;;;;;;;6250096;27;20715;-70
2023/08/21 09:01:58;;;;;;;18.75;4.72;;;;;;;;;;6254156;27;20051;-70
2023/08/21 09:05:00;;;;;;;11.07;5.93;;;;;;;;;;6266526;27;20182;-70
2023/08/21 09:08:11;;;;;;;13.27;5.60;;;;;;;;;;6269986;27;20521;-70
2023/08/21 09:11:16;;;;;;;12.15;5.63;;;;;;;;;;6255097;27;20056;-70
2023/08/21 09:14:26;;;;;;;8.63;5.70;;;;;;;;;;6262169;27;20125;-69
2023/08/21 09:17:30;;;;;;;14.85;5.60;;;;;;;;;;6283846;27;20044;-69
2023/08/21 09:20:37;;;;;;;7.18;5.00;;;;;;;;;;6250971;27;20053;-68
2023/08/21 09:23:39;;;;;;;9.73;5.15;;;;;;;;;;6293521;27;20160;-67
2023/08/21 09:26:41;;;;;;;9.05;5.43;;;;;;;;;;6250596;27;20476;-68
2023/08/21 09:29:45;;;;;;;8.90;5.07;;;;;;;;;;6258857;27;20081;-67
2023/08/21 09:33:00;;;;;;;11.43;5.13;;;;;;;;;;6264673;27;20088;-67
2023/08/21 09:36:04;;;;;;;6.75;4.53;;;;;;;;;;6278206;27;20053;-67
2023/08/21 09:39:11;;;;;;;9.93;3.95;;;;;;;;;;6260427;27;20048;-67
2023/08/21 09:42:14;;;;;;;7.30;3.53;;;;;;;;;;6282798;27;20049;-67
2023/08/21 09:45:23;;;;;;;11.38;4.10;;;;;;;;;;6247525;27;20049;-68
2023/08/21 09:48:32;;;;;;;10.32;4.13;;;;;;;;;;6262381;27;20098;-67
2023/08/21 09:51:34;;;;;;;10.52;5.03;;;;;;;;;;6303428;27;20506;-67
2023/08/21 09:54:41;;;;;;;6.60;4.05;;;;;;;;;;6244723;27;20045;-67
2023/08/21 09:57:43;;;;;;;8.80;4.85;;;;;;;;;;6277505;27;20560;-67
2023/08/21 10:00:45;;;;;;;6.00;4.32;;;;;;;;;;6248910;27;20581;-67
2023/08/21 10:03:48;;;;;;;9.02;4.93;;;;;;;;;;6258715;27;20049;-67
2023/08/21 10:06:51;;;;;;;8.15;4.88;;;;;;;;;;6265129;27;20051;-67
2023/08/21 10:09:53;;;;;;;7.68;4.47;;;;;;;;;;6277681;27;20033;-68
2023/08/21 10:12:56;;;;;;;7.05;3.83;;;;;;;;;;6265290;27;20630;-68
2023/08/21 10:15:58;;;;;;;7.60;3.92;;;;;;;;;;6251265;27;20041;-67
2023/08/21 10:19:05;;;;;;;6.70;3.45;;;;;;;;;;6273857;27;20037;-67
2023/08/21 10:22:08;;;;;;;7.15;3.78;;;;;;;;;;6258971;27;20121;-68
2023/08/21 10:25:25;;;;;;;7.18;4.05;;;;;;;;;;6252543;27;20041;-68
2023/08/21 10:28:51;;;;;;;7.55;4.20;;;;;;;;;;6303407;27;20211;-68
2023/08/21 10:32:04;;;;;;;11.93;3.90;;;;;;;;;;6256109;27;20053;-68
2023/08/21 10:35:14;;;;;;;5.55;3.67;;;;;;;;;;6269891;27;20128;-67
2023/08/21 10:38:17;;;;;;;10.65;4.32;;;;;;;;;;6266823;27;20426;-68
2023/08/21 10:41:26;;;;;;;6.68;4.03;;;;;;;;;;6269424;27;20190;-67
2023/08/21 10:44:34;;;;;;;9.20;3.70;;;;;;;;;;6281519;27;20559;-68
2023/08/21 10:47:36;;;;;;;11.60;3.85;;;;;;;;;;6293444;27;20054;-67
2023/08/21 10:50:38;;;;;;;9.57;3.80;;;;;;;;;;6250245;27;20439;-68
2023/08/21 10:53:42;;;;;;;7.85;3.58;;;;;;;;;;6259637;27;20064;-67
2023/08/21 10:56:45;;;;;;;10.52;3.63;;;;;;;;;;6265409;27;20045;-67
2023/08/21 10:59:58;;;;;;;7.30;3.67;;;;;;;;;;6296350;27;20702;-68
2023/08/21 11:03:00;;;;;;;6.82;3.88;;;;;;;;;;6273150;27;20046;-67
2023/08/21 11:06:07;;;;;;;8.60;3.88;;;;;;;;;;6244836;28;20091;-67
2023/08/21 11:09:13;;;;;;;8.73;3.92;;;;;;;;;;6278762;27;20035;-67
2023/08/21 11:12:23;;;;;;;6.13;3.55;;;;;;;;;;6295981;27;20552;-67
2023/08/21 11:15:26;;;;;;;8.75;3.33;;;;;;;;;;6306488;27;20048;-68
2023/08/21 11:18:36;;;;;;;8.55;3.15;;;;;;;;;;6330784;27;20058;-67
2023/08/21 11:21:38;;;;;;;8.38;3.47;;;;;;;;;;6276344;27;20046;-68
2023/08/21 11:24:47;;;;;;;8.10;3.15;;;;;;;;;;6263843;27;20045;-68
2023/08/21 11:27:49;;;;;;;6.72;3.17;;;;;;;;;;6273493;27;20041;-67
2023/08/21 11:30:51;;;;;;;5.93;3.60;;;;;;;;;;6251657;27;20174;-68
2023/08/21 11:33:54;;;;;;;6.15;3.55;;;;;;;;;;6306822;27;20599;-69
2023/08/21 11:36:56;;;;;;;6.38;3.65;;;;;;;;;;6279654;27;20475;-68
2023/08/21 11:39:59;;;;;;;5.30;3.13;;;;;;;;;;6253921;27;20520;-70
2023/08/21 11:43:01;;;;;;;8.98;3.58;;;;;;;;;;6273246;27;20084;-68
2023/08/21 11:46:07;;;;;;;6.07;2.80;;;;;;;;;;6321196;27;20050;-68
2023/08/21 11:49:09;;;;;;;6.05;3.35;;;;;;;;;;6267842;27;20053;-68
2023/08/21 11:52:11;;;;;;;6.35;3.45;;;;;;;;;;6278273;27;20042;-68
2023/08/21 11:55:14;;;;;;;7.60;3.00;;;;;;;;;;6291839;27;20085;-68
2023/08/21 11:58:18;;;;;;;9.15;3.55;;;;;;;;;;6257971;27;20507;-69
2023/08/21 12:01:21;;;;;;;8.13;3.22;;;;;;;;;;6258745;27;20051;-69
2023/08/21 12:04:24;;;;;;;5.35;3.80;;;;;;;;;;6261711;27;20068;-68
2023/08/21 12:07:26;;;;;;;9.75;4.47;;;;;;;;;;6273754;27;20042;-68
2023/08/21 12:10:29;;;;;;;9.95;3.47;;;;;;;;;;6267464;27;20493;-68
2023/08/21 12:13:31;;;;;;;6.32;3.47;;;;;;;;;;6271742;27;20049;-68
2023/08/21 12:16:37;;;;;;;11.60;3.85;;;;;;;;;;6280468;27;20056;-68
2023/08/21 12:19:39;;;;;;;6.00;3.33;;;;;;;;;;6258800;27;20045;-68
2023/08/21 12:22:42;;;;;;;6.80;3.72;;;;;;;;;;6274539;27;20535;-68
2023/08/21 12:25:44;;;;;;;7.10;4.10;;;;;;;;;;6269923;27;20070;-68
2023/08/21 12:28:48;;;;;;;6.95;3.58;;;;;;;;;;6253791;27;20088;-68
2023/08/21 12:31:50;;;;;;;7.35;3.75;;;;;;;;;;6256983;27;20816;-68
2023/08/21 12:34:52;;;;;;;6.85;3.63;;;;;;;;;;6311177;27;20091;-69
2023/08/21 12:37:57;;;;;;;6.18;3.67;;;;;;;;;;6280082;27;20464;-68
2023/08/21 12:40:59;;;;;;;7.10;3.30;;;;;;;;;;6271990;27;20074;-69
2023/08/21 12:44:02;;;;;;;5.57;3.60;;;;;;;;;;6260248;27;20071;-68
2023/08/21 12:47:04;;;;;;;7.30;3.45;;;;;;;;;;6276204;27;20076;-68
2023/08/21 12:50:07;;;;;;;6.63;4.18;;;;;;;;;;6273140;27;20048;-68
2023/08/21 12:53:09;;;;;;;6.68;3.85;;;;;;;;;;6297765;27;20049;-68
2023/08/21 12:56:11;;;;;;;5.53;4.05;;;;;;;;;;6322137;27;20063;-68
2023/08/21 12:59:13;;;;;;;9.38;4.25;;;;;;;;;;6266738;27;20559;-68
2023/08/21 13:02:18;;;;;;;13.50;3.95;;;;;;;;;;6264462;27;20049;-68
2023/08/21 13:05:20;;;;;;;12.75;3.70;;;;;;;;;;6270186;27;20055;-68
2023/08/21 13:08:23;;;;;;;7.75;3.50;;;;;;;;;;6258486;27;20056;-68
2023/08/21 13:11:25;;;;;;;6.82;3.85;;;;;;;;;;6293293;27;20442;-68
2023/08/21 13:14:27;;;;;;;6.97;3.60;;;;;;;;;;6251071;27;20052;-68
2023/08/21 13:17:34;;;;;;;8.07;4.22;;;;;;;;;;6262144;27;20439;-68
2023/08/21 13:20:36;;;;;;;8.05;3.63;;;;;;;;;;6263430;27;20057;-68
2023/08/21 13:23:38;;;;;;;8.93;4.47;;;;;;;;;;6257665;27;20805;-68
2023/08/21 13:26:40;;;;;;;8.27;3.65;;;;;;;;;;6320143;27;20053;-68
2023/08/21 13:29:42;;;;;;;9.40;3.72;;;;;;;;;;6311916;27;20044;-68
2023/08/21 13:32:44;;;;;;;4.50;3.42;;;;;;;;;;6295375;27;20122;-67
2023/08/21 13:35:47;;;;;;;5.55;3.65;;;;;;;;;;6269760;27;20053;-68
2023/08/21 13:38:49;;;;;;;5.60;3.15;;;;;;;;;;6281910;27;20044;-68
2023/08/21 13:41:51;;;;;;;5.80;3.28;;;;;;;;;;6259617;27;20495;-68
2023/08/21 13:44:53;;;;;;;7.18;4.03;;;;;;;;;;6262628;27;20471;-68
2023/08/21 13:47:55;;;;;;;5.47;3.30;;;;;;;;;;6273504;27;20038;-71
2023/08/21 13:50:57;;;;;;;7.95;4.22;;;;;;;;;;6257324;27;20073;-71
2023/08/21 13:53:59;;;;;;;9.80;3.38;;;;;;;;;;6238610;28;20049;-71
2023/08/21 13:57:01;;;;;;;8.95;3.90;;;;;;;;;;6246861;27;20174;-70
2023/08/21 14:00:11;;;;;;;6.28;3.97;;;;;;;;;;6265416;27;20041;-69
2023/08/21 14:03:14;;;;;;;7.35;4.28;;;;;;;;;;6256442;27;20048;-69
2023/08/21 14:06:16;;;;;;;7.97;3.78;;;;;;;;;;6271469;27;20056;-69
2023/08/21 14:09:19;;;;;;;6.20;4.50;;;;;;;;;;6256843;27;20041;-69
2023/08/21 14:12:21;;;;;;;7.45;3.53;;;;;;;;;;6285447;27;20048;-69
2023/08/21 14:15:24;;;;;;;6.10;3.72;;;;;;;;;;6274515;27;20052;-69
2023/08/21 14:18:26;;;;;;;9.02;3.50;;;;;;;;;;6301104;27;20124;-69
2023/08/21 14:21:28;;;;;;;5.60;3.53;;;;;;;;;;6264434;27;20053;-69
2023/08/21 14:24:30;;;;;;;5.95;3.33;;;;;;;;;;6248567;27;20057;-69
2023/08/21 14:27:32;;;;;;;8.35;3.92;;;;;;;;;;6272649;27;20038;-69
2023/08/21 14:30:35;;;;;;;7.57;4.22;;;;;;;;;;6263237;27;20049;-68
2023/08/21 14:33:37;;;;;;;6.35;3.45;;;;;;;;;;6251669;27;20037;-68
2023/08/21 14:36:39;;;;;;;9.88;3.30;;;;;;;;;;6275792;27;20045;-69
2023/08/21 14:39:44;;;;;;;7.25;3.78;;;;;;;;;;6263237;27;20037;-69
2023/08/21 14:42:46;;;;;;;6.50;3.80;;;;;;;;;;6281578;27;20045;-69
2023/08/21 14:45:48;;;;;;;7.05;3.47;;;;;;;;;;6269975;27;20045;-70
2023/08/21 14:48:50;;;;;;;10.52;3.47;;;;;;;;;;6268589;27;20643;-69
2023/08/21 14:51:53;;;;;;;7.13;4.38;;;;;;;;;;6261234;27;20128;-68
2023/08/21 14:54:57;;;;;;;5.60;3.33;;;;;;;;;;6257500;27;20045;-71
2023/08/21 14:58:05;;;;;;;8.48;4.13;;;;;;;;;;6262884;27;20574;-69
2023/08/21 15:01:07;;;;;;;7.68;4.30;;;;;;;;;;6274537;27;20321;-68
2023/08/21 15:04:11;;;;;;;6.30;3.78;;;;;;;;;;6258316;27;20049;-69
2023/08/21 15:07:13;;;;;;;6.57;3.83;;;;;;;;;;6304045;27;20114;-67
2023/08/21 15:10:15;;;;;;;10.70;4.00;;;;;;;;;;6276976;27;20050;-70
2023/08/21 15:13:17;;;;;;;7.88;4.10;;;;;;;;;;6248544;28;20049;-71
2023/08/21 15:16:19;;;;;;;5.68;3.75;;;;;;;;;;6252884;27;20042;-70
2023/08/21 15:19:21;;;;;;;6.47;3.85;;;;;;;;;;6271106;27;20124;-71
2023/08/21 15:22:23;;;;;;;5.18;4.03;;;;;;;;;;6322476;27;20039;-70
2023/08/21 15:25:25;;;;;;;6.90;3.28;;;;;;;;;;6266274;27;20045;-68
2023/08/21 15:28:28;;;;;;;8.07;4.07;;;;;;;;;;6278989;27;20034;-69
2023/08/21 15:31:30;;;;;;;8.18;4.22;;;;;;;;;;6284207;27;20457;-69
2023/08/21 15:34:32;;;;;;;6.68;3.42;;;;;;;;;;6335858;27;20488;-69
2023/08/21 15:37:34;;;;;;;7.93;3.60;;;;;;;;;;6278563;27;20052;-69
2023/08/21 15:40:36;;;;;;;7.88;3.22;;;;;;;;;;6302905;27;20113;-69
2023/08/21 15:43:38;;;;;;;5.93;3.95;;;;;;;;;;6302042;27;20192;-69
2023/08/21 15:46:43;;;;;;;5.40;3.20;;;;;;;;;;6336891;27;20097;-69
2023/08/21 15:49:46;;;;;;;7.50;3.10;;;;;;;;;;6254182;27;20045;-69
2023/08/21 15:52:48;;;;;;;6.63;3.53;;;;;;;;;;6308306;27;20049;-69
2023/08/21 15:55:54;;;;;;;8.27;3.92;;;;;;;;;;6290412;27;20053;-69
2023/08/21 15:58:56;;;;;;;8.45;3.92;;;;;;;;;;6262923;27;20082;-69
2023/08/21 16:01:59;;;;;;;6.07;4.13;;;;;;;;;;6259338;27;20044;-69
2023/08/21 16:05:01;;;;;;;8.32;4.55;;;;;;;;;;6253036;27;20979;-69
2023/08/21 16:08:03;;;;;;;7.93;4.40;;;;;;;;;;6277949;27;20044;-69
2023/08/21 16:11:06;;;;;;;8.30;4.40;;;;;;;;;;6262961;27;20041;-69
2023/08/21 16:14:08;;;;;;;9.23;4.75;;;;;;;;;;6298981;27;20045;-69
2023/08/21 16:17:10;;;;;;;8.65;4.60;;;;;;;;;;6280639;27;20112;-69
2023/08/21 16:20:15;;;;;;;8.27;4.38;;;;;;;;;;6325222;27;20042;-69
2023/08/21 16:23:17;;;;;;;8.25;4.22;;;;;;;;;;6256703;27;20822;-69
2023/08/21 16:26:23;;;;;;;9.70;4.63;;;;;;;;;;6289489;27;20042;-69
2023/08/21 16:29:25;;;;;;;8.95;4.00;;;;;;;;;;6286901;27;20045;-69
2023/08/21 16:32:27;;;;;;;9.40;4.75;;;;;;;;;;6282399;27;20076;-69
2023/08/21 16:35:29;;;;;;;7.75;4.35;;;;;;;;;;6281146;27;20057;-71
2023/08/21 16:38:33;;;;;;;10.23;5.22;;;;;;;;;;6293155;27;20037;-70
2023/08/21 16:41:35;;;;;;;20.88;7.47;;;;;;;;;;6279369;27;20551;-70
2023/08/21 16:44:42;;;;;;;7.95;4.47;;;;;;;;;;6286610;27;20053;-69
2023/08/21 16:47:46;;;;;;;14.07;5.25;;;;;;;;;;6266221;27;20048;-69
2023/08/21 16:50:48;;;;;;;14.93;5.50;;;;;;;;;;6306725;27;20057;-69
2023/08/21 16:53:50;;;;;;;6.88;3.33;;;;;;;;;;6268517;27;20045;-70
2023/08/21 16:56:52;;;;;;;9.50;4.57;;;;;;;;;;6261137;27;20595;-69
2023/08/21 16:59:54;;;;;;;16.33;6.47;;;;;;;;;;6259418;27;20095;-71
2023/08/21 17:02:59;;;;;;;13.02;5.93;;;;;;;;;;6277539;27;20123;-70
2023/08/21 17:06:01;;;;;;;7.05;4.40;;;;;;;;;;6266101;27;20060;-70
2023/08/21 17:09:04;;;;;;;8.43;4.30;;;;;;;;;;6303500;27;20150;-70
2023/08/21 17:12:06;;;;;;;11.10;5.45;;;;;;;;;;6284646;27;20157;-70
2023/08/21 17:15:09;;;;;;;6.63;5.40;;;;;;;;;;6250524;27;20580;-70
2023/08/21 17:18:11;;;;;;;12.05;5.88;;;;;;;;;;6262098;27;20047;-70
2023/08/21 17:21:13;;;;;;;9.10;5.25;;;;;;;;;;6344620;27;20042;-69
2023/08/21 17:24:15;;;;;;;9.00;5.95;;;;;;;;;;6274261;27;20443;-70
2023/08/21 17:27:17;;;;;;;7.22;5.25;;;;;;;;;;6249278;27;20041;-69
2023/08/21 17:30:19;;;;;;;8.55;6.50;;;;;;;;;;6240311;27;20121;-69
2023/08/21 17:33:21;;;;;;;13.82;10.88;;;;;;;;;;6255364;27;20470;-70
2023/08/21 17:36:25;;;;;;;57.20;38.58;;;;;;;;;;6275190;27;20197;-69
2023/08/21 17:39:27;;;;;;;233.77;163.40;;;;;;;;;;6278161;27;20081;-69
2023/08/21 17:42:30;;;;;;;180.23;130.65;;;;;;;;;;6265287;27;20055;-69
2023/08/21 17:45:33;;;;;;;18.45;12.13;;;;;;;;;;6278429;27;20060;-69
2023/08/21 17:48:35;;;;;;;11.25;6.03;;;;;;;;;;6274483;27;20049;-69
2023/08/21 17:51:37;;;;;;;96.45;69.57;;;;;;;;;;6276925;27;20605;-68
2023/08/21 17:54:39;;;;;;;21.35;14.40;;;;;;;;;;6253690;27;20741;-68
2023/08/21 17:57:41;;;;;;;25.10;13.50;;;;;;;;;;6267947;27;20045;-65
2023/08/21 18:00:43;;;;;;;95.72;67.25;;;;;;;;;;6264642;27;20042;-68
2023/08/21 18:03:46;;;;;;;426.77;305.25;;;;;;;;;;6249822;27;20116;-67
2023/08/21 18:06:48;;;;;;;181.10;140.73;;;;;;;;;;6268882;27;20082;-67
2023/08/21 18:09:50;;;;;;;117.28;97.68;;;;;;;;;;6254893;27;20174;-67